createdAt,value
2018-09-05T00:00:37.926Z,6.10
2018-09-05T00:01:37.803Z,5.10
2018-09-05T00:02:37.674Z,5.90
2018-09-05T00:03:37.549Z,5.80
2018-09-05T00:04:37.425Z,5.50
2018-09-05T00:05:37.300Z,5.20
2018-09-05T00:06:37.180Z,5.20
2018-09-05T00:07:37.051Z,5.30
2018-09-05T00:08:36.925Z,5.80
2018-09-05T00:09:36.799Z,5.20
2018-09-05T00:10:36.676Z,5.80
2018-09-05T00:11:36.554Z,5.60
2018-09-05T00:12:36.424Z,5.00
2018-09-05T00:13:36.302Z,5.40
2018-09-05T00:14:36.180Z,5.80
2018-09-05T00:15:36.052Z,5.50
2018-09-05T00:16:35.927Z,5.40
2018-09-05T00:17:35.800Z,5.10
2018-09-05T00:18:35.672Z,5.10
2018-09-05T00:19:35.547Z,5.10
2018-09-05T00:20:35.424Z,5.60
2018-09-05T00:21:35.297Z,4.90
2018-09-05T00:22:35.172Z,5.30
2018-09-05T00:23:35.047Z,5.20
2018-09-05T00:24:34.923Z,5.00
2018-09-05T00:25:34.797Z,5.30
2018-09-05T00:26:34.675Z,5.70
2018-09-05T00:27:34.553Z,5.30
2018-09-05T00:28:34.420Z,5.40
2018-09-05T00:29:34.295Z,5.30
2018-09-05T00:30:34.171Z,4.90
2018-09-05T00:31:34.048Z,5.20
2018-09-05T00:32:33.920Z,4.90
2018-09-05T00:33:33.796Z,5.40
2018-09-05T00:34:33.669Z,5.30
2018-09-05T00:35:33.543Z,5.10
2018-09-05T00:36:33.420Z,5.30
2018-09-05T00:37:33.294Z,5.10
2018-09-05T00:38:33.168Z,5.50
2018-09-05T00:39:33.042Z,5.20
2018-09-05T00:40:32.917Z,5.00
2018-09-05T00:41:32.794Z,5.40
2018-09-05T00:42:32.666Z,5.20
2018-09-05T00:43:32.542Z,4.90
2018-09-05T00:44:32.417Z,5.50
2018-09-05T00:45:32.293Z,5.60
2018-09-05T00:46:32.165Z,5.10
2018-09-05T00:47:32.040Z,5.20
2018-09-05T00:48:31.914Z,5.20
2018-09-05T00:49:31.793Z,5.30
2018-09-05T00:50:31.663Z,5.00
2018-09-05T00:51:31.539Z,4.80
2018-09-05T00:52:31.413Z,5.00
2018-09-05T00:53:31.288Z,4.90
2018-09-05T00:54:31.162Z,5.10
2018-09-05T00:55:31.042Z,4.80
2018-09-05T00:56:30.913Z,5.30
2018-09-05T00:57:30.793Z,5.10
2018-09-05T00:58:30.663Z,5.10
2018-09-05T00:59:30.535Z,5.40
2018-09-05T01:00:30.419Z,5.20
2018-09-05T01:01:30.287Z,5.00
2018-09-05T01:02:30.159Z,5.30
2018-09-05T01:03:30.038Z,5.30
2018-09-05T01:04:29.942Z,4.80
2018-09-05T01:05:29.787Z,5.20
2018-09-05T01:06:29.665Z,4.80
2018-09-05T01:07:29.539Z,4.80
2018-09-05T01:08:29.409Z,4.60
2018-09-05T01:09:29.284Z,4.80
2018-09-05T01:10:29.159Z,5.30
2018-09-05T01:11:29.032Z,5.10
2018-09-05T01:12:28.907Z,4.80
2018-09-05T01:13:28.788Z,5.10
2018-09-05T01:14:28.657Z,4.70
2018-09-05T01:15:28.531Z,5.40
2018-09-05T01:16:30.036Z,5.00
2018-09-05T01:17:28.281Z,5.20
2018-09-05T01:18:28.156Z,5.30
2018-09-05T01:19:28.033Z,4.90
2018-09-05T01:20:27.910Z,4.90
2018-09-05T01:21:27.779Z,4.60
2018-09-05T01:22:27.654Z,4.90
2018-09-05T01:23:27.529Z,5.20
2018-09-05T01:24:27.409Z,5.20
2018-09-05T01:25:27.278Z,5.20
2018-09-05T01:26:27.151Z,5.20
2018-09-05T01:27:27.030Z,5.30
2018-09-05T01:28:26.904Z,5.40
2018-09-05T01:29:26.777Z,5.10
2018-09-05T01:30:26.651Z,5.20
2018-09-05T01:31:26.525Z,5.20
2018-09-05T01:32:26.404Z,5.10
2018-09-05T01:33:26.276Z,5.60
2018-09-05T01:34:26.150Z,5.40
2018-09-05T01:35:26.023Z,5.30
2018-09-05T01:36:25.898Z,5.10
2018-09-05T01:37:25.774Z,5.20
2018-09-05T01:38:25.655Z,5.60
2018-09-05T01:39:25.522Z,5.10
2018-09-05T01:40:25.397Z,5.20
2018-09-05T01:41:25.272Z,5.20
2018-09-05T01:42:25.148Z,5.50
2018-09-05T01:43:25.017Z,5.00
2018-09-05T01:44:24.895Z,5.60
2018-09-05T01:45:24.772Z,5.20
2018-09-05T01:46:24.645Z,5.50
2018-09-05T01:47:24.518Z,5.00
2018-09-05T01:48:24.392Z,5.30
2018-09-05T01:49:24.269Z,5.30
2018-09-05T01:50:24.140Z,5.20
2018-09-05T01:51:24.016Z,5.30
2018-09-05T01:52:23.890Z,5.40
2018-09-05T01:53:23.764Z,5.10
2018-09-05T01:54:23.638Z,5.40
2018-09-05T01:55:23.516Z,5.30
2018-09-05T01:56:23.386Z,5.40
2018-09-05T01:57:23.268Z,5.20
2018-09-05T01:58:23.136Z,5.50
2018-09-05T01:59:23.025Z,5.20
2018-09-05T02:00:22.887Z,5.20
2018-09-05T02:01:22.760Z,5.20
2018-09-05T02:02:22.633Z,5.20
2018-09-05T02:03:22.509Z,5.40
2018-09-05T02:04:22.383Z,5.30
2018-09-05T02:05:22.274Z,5.50
2018-09-05T02:06:22.131Z,5.70
2018-09-05T02:07:22.005Z,5.10
2018-09-05T02:08:21.905Z,5.30
2018-09-05T02:09:21.753Z,5.30
2018-09-05T02:10:21.630Z,5.50
2018-09-05T02:11:21.504Z,5.40
2018-09-05T02:12:21.377Z,5.20
2018-09-05T02:13:21.253Z,5.30
2018-09-05T02:14:21.126Z,5.50
2018-09-05T02:15:21.001Z,5.50
2018-09-05T02:16:20.880Z,5.10
2018-09-05T02:17:20.749Z,5.40
2018-09-05T02:18:20.624Z,5.20
2018-09-05T02:19:20.499Z,5.20
2018-09-05T02:20:20.372Z,5.10
2018-09-05T02:21:20.248Z,5.30
2018-09-05T02:22:20.120Z,5.30
2018-09-05T02:23:19.996Z,5.20
2018-09-05T02:24:19.869Z,5.50
2018-09-05T02:25:19.745Z,5.40
2018-09-05T02:26:19.617Z,5.80
2018-09-05T02:27:19.497Z,5.10
2018-09-05T02:28:19.368Z,4.80
2018-09-05T02:29:19.248Z,4.90
2018-09-05T02:30:19.116Z,5.30
2018-09-05T02:31:18.989Z,5.00
2018-09-05T02:32:18.866Z,5.00
2018-09-05T02:33:18.747Z,5.10
2018-09-05T02:34:18.618Z,5.10
2018-09-05T02:35:18.489Z,5.30
2018-09-05T02:36:18.362Z,5.00
2018-09-05T02:37:18.236Z,5.20
2018-09-05T02:38:18.108Z,5.00
2018-09-05T02:39:17.987Z,5.40
2018-09-05T02:40:17.897Z,5.30
2018-09-05T02:41:17.733Z,5.10
2018-09-05T02:42:17.608Z,4.70
2018-09-05T02:43:17.483Z,5.30
2018-09-05T02:44:17.358Z,5.20
2018-09-05T02:45:17.230Z,5.30
2018-09-05T02:46:17.104Z,5.40
2018-09-05T02:47:16.979Z,5.40
2018-09-05T02:48:16.853Z,6.10
2018-09-05T02:49:16.728Z,5.90
2018-09-05T02:50:16.601Z,5.90
2018-09-05T02:51:16.475Z,5.70
2018-09-05T02:52:16.351Z,5.30
2018-09-05T02:53:16.224Z,5.60
2018-09-05T02:54:16.104Z,5.70
2018-09-05T02:55:15.973Z,5.40
2018-09-05T02:56:15.848Z,5.50
2018-09-05T02:57:15.726Z,5.50
2018-09-05T02:58:15.596Z,5.50
2018-09-05T02:59:15.472Z,6.00
2018-09-05T03:00:15.344Z,5.70
2018-09-05T03:01:15.221Z,5.40
2018-09-05T03:02:15.098Z,5.40
2018-09-05T03:03:14.968Z,5.80
2018-09-05T03:04:14.843Z,5.90
2018-09-05T03:05:14.715Z,6.10
2018-09-05T03:06:14.589Z,5.50
2018-09-05T03:07:14.464Z,6.00
2018-09-05T03:08:14.338Z,6.00
2018-09-05T03:09:14.262Z,6.10
2018-09-05T03:10:14.088Z,5.50
2018-09-05T03:11:13.959Z,5.70
2018-09-05T03:12:13.836Z,5.90
2018-09-05T03:13:13.709Z,6.10
2018-09-05T03:14:13.628Z,6.30
2018-09-05T03:15:13.458Z,5.60
2018-09-05T03:16:13.333Z,5.80
2018-09-05T03:17:13.208Z,5.80
2018-09-05T03:18:13.087Z,5.60
2018-09-05T03:19:12.956Z,5.40
2018-09-05T03:20:12.829Z,5.40
2018-09-05T03:21:12.706Z,5.50
2018-09-05T03:22:12.578Z,5.90
2018-09-05T03:23:12.451Z,5.60
2018-09-05T03:24:12.325Z,5.40
2018-09-05T03:25:12.202Z,5.70
2018-09-05T03:26:12.074Z,5.50
2018-09-05T03:27:11.951Z,5.40
2018-09-05T03:28:11.825Z,5.40
2018-09-05T03:29:11.702Z,5.10
2018-09-05T03:30:11.572Z,5.10
2018-09-05T03:31:11.448Z,5.10
2018-09-05T03:32:11.333Z,5.30
2018-09-05T03:33:11.233Z,5.40
2018-09-05T03:34:11.072Z,5.30
2018-09-05T03:35:10.946Z,5.40
2018-09-05T03:36:10.820Z,5.10
2018-09-05T03:37:10.694Z,5.30
2018-09-05T03:38:10.569Z,5.50
2018-09-05T03:39:10.442Z,5.90
2018-09-05T03:40:10.318Z,5.70
2018-09-05T03:41:10.191Z,5.50
2018-09-05T03:42:10.064Z,5.50
2018-09-05T03:43:09.939Z,5.40
2018-09-05T03:44:09.813Z,5.30
2018-09-05T03:45:09.688Z,5.50
2018-09-05T03:46:09.579Z,5.50
2018-09-05T03:47:09.440Z,4.90
2018-09-05T03:48:09.309Z,5.30
2018-09-05T03:49:09.185Z,5.70
2018-09-05T03:50:09.057Z,5.60
2018-09-05T03:51:08.932Z,5.90
2018-09-05T03:52:08.811Z,5.50
2018-09-05T03:53:08.680Z,5.40
2018-09-05T03:54:08.555Z,5.50
2018-09-05T03:55:08.428Z,5.60
2018-09-05T03:56:08.306Z,6.00
2018-09-05T03:57:08.182Z,5.50
2018-09-05T03:58:08.056Z,5.50
2018-09-05T03:59:07.925Z,5.40
2018-09-05T04:00:07.803Z,5.90
2018-09-05T04:01:07.674Z,5.40
2018-09-05T04:02:07.557Z,5.80
2018-09-05T04:03:07.420Z,5.90
2018-09-05T04:04:07.294Z,5.40
2018-09-05T04:05:07.319Z,5.40
2018-09-05T04:06:07.048Z,5.40
2018-09-05T04:07:06.918Z,5.60
2018-09-05T04:08:06.794Z,5.60
2018-09-05T04:09:06.675Z,5.60
2018-09-05T04:10:06.541Z,5.30
2018-09-05T04:11:06.415Z,5.70
2018-09-05T04:12:06.377Z,5.20
2018-09-05T04:13:06.168Z,5.30
2018-09-05T04:14:06.035Z,5.60
2018-09-05T04:15:05.910Z,5.30
2018-09-05T04:16:05.785Z,5.10
2018-09-05T04:17:05.659Z,5.40
2018-09-05T04:18:05.533Z,5.00
2018-09-05T04:19:05.408Z,4.90
2018-09-05T04:20:05.282Z,4.70
2018-09-05T04:21:05.163Z,4.60
2018-09-05T04:22:05.058Z,4.90
2018-09-05T04:23:04.903Z,4.90
2018-09-05T04:24:04.776Z,5.30
2018-09-05T04:25:04.651Z,5.00
2018-09-05T04:26:04.534Z,5.00
2018-09-05T04:27:04.400Z,4.90
2018-09-05T04:28:04.280Z,5.10
2018-09-05T04:29:04.148Z,5.20
2018-09-05T04:30:04.027Z,5.00
2018-09-05T04:31:03.895Z,5.20
2018-09-05T04:32:03.769Z,5.00
2018-09-05T04:33:03.647Z,5.20
2018-09-05T04:34:03.519Z,5.20
2018-09-05T04:35:03.392Z,5.10
2018-09-05T04:36:03.279Z,4.90
2018-09-05T04:37:03.146Z,5.00
2018-09-05T04:38:03.019Z,5.10
2018-09-05T04:39:02.889Z,4.90
2018-09-05T04:40:02.765Z,4.60
2018-09-05T04:41:02.643Z,4.90
2018-09-05T04:42:02.512Z,5.10
2018-09-05T04:43:02.389Z,5.20
2018-09-05T04:44:02.260Z,5.20
2018-09-05T04:45:02.163Z,4.90
2018-09-05T04:46:02.008Z,4.70
2018-09-05T04:47:01.882Z,5.30
2018-09-05T04:48:01.759Z,5.30
2018-09-05T04:49:01.632Z,5.40
2018-09-05T04:50:01.504Z,5.20
2018-09-05T04:51:01.379Z,5.60
2018-09-05T04:52:01.254Z,5.40
2018-09-05T04:53:01.132Z,5.50
2018-09-05T04:54:01.001Z,5.10
2018-09-05T04:55:00.878Z,5.70
2018-09-05T04:56:00.752Z,5.50
2018-09-05T04:57:00.624Z,5.30
2018-09-05T04:58:00.499Z,5.70
2018-09-05T04:59:00.374Z,5.30
2018-09-05T05:00:00.248Z,5.10
2018-09-05T05:01:00.121Z,5.40
2018-09-05T05:01:59.993Z,5.40
2018-09-05T05:02:59.868Z,5.10
2018-09-05T05:03:59.743Z,5.40
2018-09-05T05:04:59.618Z,4.90
2018-09-05T05:05:59.491Z,5.20
2018-09-05T05:06:59.364Z,5.00
2018-09-05T05:07:59.239Z,4.80
2018-09-05T05:08:59.115Z,4.60
2018-09-05T05:09:58.988Z,5.00
2018-09-05T05:10:58.860Z,4.40
2018-09-05T05:11:58.737Z,4.60
2018-09-05T05:12:58.614Z,4.70
2018-09-05T05:13:58.487Z,4.20
2018-09-05T05:14:58.357Z,4.50
2018-09-05T05:15:58.233Z,4.20
2018-09-05T05:16:58.110Z,4.30
2018-09-05T05:17:57.984Z,3.90
2018-09-05T05:18:57.883Z,3.70
2018-09-05T05:19:57.730Z,4.20
2018-09-05T05:20:57.604Z,3.90
2018-09-05T05:21:57.497Z,3.80
2018-09-05T05:22:57.353Z,4.20
2018-09-05T05:23:57.230Z,4.20
2018-09-05T05:24:57.100Z,3.90
2018-09-05T05:25:56.975Z,3.90
2018-09-05T05:26:56.848Z,4.00
2018-09-05T05:27:56.724Z,4.20
2018-09-05T05:28:56.599Z,4.20
2018-09-05T05:29:56.473Z,4.10
2018-09-05T05:30:56.345Z,3.70
2018-09-05T05:31:56.220Z,4.30
2018-09-05T05:32:56.131Z,4.10
2018-09-05T05:33:55.975Z,4.30
2018-09-05T05:34:55.845Z,4.60
2018-09-05T05:35:55.879Z,4.30
2018-09-05T05:36:55.593Z,4.60
2018-09-05T05:37:55.465Z,4.50
2018-09-05T05:38:55.341Z,5.00
2018-09-05T05:39:55.218Z,4.40
2018-09-05T05:40:55.099Z,4.50
2018-09-05T05:41:54.962Z,4.50
2018-09-05T05:42:54.868Z,4.10
2018-09-05T05:43:54.711Z,4.30
2018-09-05T05:44:54.586Z,4.40
2018-09-05T05:45:54.459Z,4.60
2018-09-05T05:46:54.338Z,4.00
2018-09-05T05:47:54.210Z,3.70
2018-09-05T05:48:54.083Z,3.80
2018-09-05T05:49:53.958Z,3.90
2018-09-05T05:50:53.834Z,3.90
2018-09-05T05:51:53.707Z,4.10
2018-09-05T05:52:53.582Z,3.80
2018-09-05T05:53:53.463Z,3.60
2018-09-05T05:54:53.331Z,3.70
2018-09-05T05:55:53.243Z,3.90
2018-09-05T05:56:53.085Z,3.70
2018-09-05T05:57:52.973Z,3.90
2018-09-05T05:58:52.856Z,3.70
2018-09-05T05:59:52.708Z,3.50
2018-09-05T06:00:52.651Z,3.70
2018-09-05T06:01:52.460Z,3.50
2018-09-05T06:02:52.334Z,3.50
2018-09-05T06:03:52.210Z,3.70
2018-09-05T06:04:52.088Z,3.50
2018-09-05T06:05:52.028Z,3.80
2018-09-05T06:06:51.892Z,3.50
2018-09-05T06:07:51.714Z,3.50
2018-09-05T06:08:51.590Z,3.60
2018-09-05T06:09:51.464Z,3.80
2018-09-05T06:10:51.342Z,3.10
2018-09-05T06:11:51.222Z,3.40
2018-09-05T06:12:51.095Z,3.20
2018-09-05T06:13:50.967Z,3.40
2018-09-05T06:14:50.883Z,3.80
2018-09-05T06:15:50.727Z,3.60
2018-09-05T06:16:50.655Z,3.80
2018-09-05T06:17:50.478Z,3.60
2018-09-05T06:18:50.350Z,3.50
2018-09-05T06:19:50.230Z,3.50
2018-09-05T06:20:50.232Z,3.20
2018-09-05T06:21:49.979Z,3.50
2018-09-05T06:22:49.877Z,3.20
2018-09-05T06:23:49.775Z,3.10
2018-09-05T06:24:49.608Z,3.30
2018-09-05T06:25:49.483Z,3.10
2018-09-05T06:26:49.359Z,3.30
2018-09-05T06:27:49.380Z,3.60
2018-09-05T06:28:49.114Z,3.10
2018-09-05T06:29:48.991Z,3.10
2018-09-05T06:30:48.972Z,3.20
2018-09-05T06:31:48.749Z,3.40
2018-09-05T06:32:48.621Z,3.10
2018-09-05T06:33:48.494Z,3.60
2018-09-05T06:34:48.372Z,3.20
2018-09-05T06:35:48.248Z,3.00
2018-09-05T06:36:48.125Z,3.10
2018-09-05T06:37:48.001Z,3.20
2018-09-05T06:38:47.879Z,3.60
2018-09-05T06:39:47.756Z,3.30
2018-09-05T06:40:47.631Z,3.30
2018-09-05T06:41:47.508Z,3.00
2018-09-05T06:42:47.387Z,3.10
2018-09-05T06:43:47.262Z,2.70
2018-09-05T06:44:47.143Z,3.00
2018-09-05T06:45:47.014Z,2.90
2018-09-05T06:46:46.891Z,3.20
2018-09-05T06:47:46.790Z,3.30
2018-09-05T06:48:46.645Z,3.20
2018-09-05T06:49:46.523Z,3.10
2018-09-05T06:50:46.399Z,3.00
2018-09-05T06:51:46.275Z,3.00
2018-09-05T06:52:46.155Z,2.90
2018-09-05T06:53:53.186Z,2.90
2018-09-05T06:55:38.744Z,2.70
2018-09-05T06:56:38.577Z,3.00
2018-09-05T06:58:31.250Z,2.70
2018-09-05T06:59:31.123Z,2.80
2018-09-05T07:01:51.839Z,2.80
2018-09-05T07:02:52.457Z,2.50
2018-09-05T07:04:45.383Z,2.70
2018-09-05T07:05:44.207Z,2.90
2018-09-05T07:07:36.874Z,2.50
2018-09-05T07:08:36.742Z,2.60
2018-09-05T07:10:29.436Z,2.70
2018-09-05T07:11:29.277Z,3.00
2018-09-05T07:13:21.972Z,2.60
2018-09-05T07:14:21.817Z,2.70
2018-09-05T07:16:14.482Z,2.70
2018-09-05T07:17:14.348Z,2.90
2018-09-05T07:19:07.050Z,2.50
2018-09-05T07:20:06.882Z,2.40
2018-09-05T07:21:59.652Z,2.80
2018-09-05T07:22:59.470Z,2.70
2018-09-05T07:24:52.248Z,2.70
2018-09-05T07:25:51.958Z,3.00
2018-09-05T07:27:44.630Z,2.50
2018-09-05T07:28:44.497Z,2.50
2018-09-05T07:30:45.215Z,2.50
2018-09-05T07:31:37.897Z,2.60
2018-09-05T07:33:45.654Z,2.60
2018-09-05T07:34:45.520Z,2.60
2018-09-05T07:36:38.264Z,2.70
2018-09-05T07:37:38.061Z,2.50
2018-09-05T07:39:30.727Z,2.50
2018-09-05T07:40:30.599Z,2.60
2018-09-05T07:42:23.315Z,2.50
2018-09-05T07:43:23.153Z,2.40
2018-09-05T07:45:15.853Z,2.70
2018-09-05T07:46:15.695Z,2.60
2018-09-05T07:48:08.389Z,2.50
2018-09-05T07:49:08.535Z,2.70
2018-09-05T07:51:01.014Z,2.60
2018-09-05T07:52:00.790Z,2.40
2018-09-05T07:53:53.617Z,2.50
2018-09-05T07:54:53.311Z,2.60
2018-09-05T07:56:46.196Z,2.60
2018-09-05T07:57:46.007Z,2.50
2018-09-05T07:59:38.523Z,2.40
2018-09-05T08:00:38.393Z,2.50
2018-09-05T08:02:31.101Z,2.40
2018-09-05T08:03:30.937Z,2.80
2018-09-05T08:05:23.643Z,2.60
2018-09-05T08:06:23.516Z,2.70
2018-09-05T08:08:16.217Z,2.70
2018-09-05T08:09:16.058Z,2.70
2018-09-05T08:11:09.073Z,2.70
2018-09-05T08:12:08.773Z,2.80
2018-09-05T08:14:01.319Z,2.60
2018-09-05T08:15:01.155Z,2.80
2018-09-05T08:17:07.975Z,2.90
2018-09-05T08:18:07.625Z,3.10
2018-09-05T08:19:59.134Z,2.90
2018-09-05T08:20:58.975Z,2.90
2018-09-05T08:22:52.496Z,2.80
2018-09-05T08:23:52.369Z,3.00
2018-09-05T08:25:45.076Z,2.80
2018-09-05T08:26:44.918Z,3.00
2018-09-05T08:28:53.524Z,2.80
2018-09-05T08:29:53.376Z,2.70
2018-09-05T08:31:46.045Z,2.80
2018-09-05T08:32:45.886Z,3.10
2018-09-05T08:34:38.598Z,2.70
2018-09-05T08:35:38.662Z,2.90
2018-09-05T08:37:31.348Z,2.60
2018-09-05T08:38:31.118Z,3.00
2018-09-05T08:40:38.734Z,2.80
2018-09-05T08:41:38.636Z,2.60
2018-09-05T08:43:33.010Z,2.70
2018-09-05T08:44:32.880Z,2.70
2018-09-05T08:46:25.549Z,3.00
2018-09-05T08:47:25.432Z,2.60
2018-09-05T08:49:18.114Z,2.70
2018-09-05T08:50:17.947Z,2.70
2018-09-05T08:52:10.616Z,2.90
2018-09-05T08:53:10.487Z,2.70
2018-09-05T08:55:03.198Z,2.70
2018-09-05T08:56:03.125Z,2.80
2018-09-05T08:57:55.714Z,2.70
2018-09-05T08:58:55.665Z,2.60
2018-09-05T09:01:03.632Z,2.60
2018-09-05T09:02:03.472Z,2.90
2018-09-05T09:03:56.147Z,2.60
2018-09-05T09:04:56.066Z,2.80
2018-09-05T09:06:48.723Z,2.70
2018-09-05T09:07:48.569Z,2.60
2018-09-05T09:09:41.240Z,2.70
2018-09-05T09:10:41.115Z,3.00
2018-09-05T09:12:33.820Z,2.90
2018-09-05T09:13:33.664Z,2.60
2018-09-05T09:15:26.341Z,2.70
2018-09-05T09:16:26.215Z,2.60
2018-09-05T09:18:19.104Z,2.80
2018-09-05T09:19:18.761Z,2.70
2018-09-05T09:21:11.464Z,2.90
2018-09-05T09:22:11.309Z,2.80
2018-09-05T09:24:04.871Z,2.90
2018-09-05T09:25:04.712Z,2.80
2018-09-05T09:26:58.885Z,2.80
2018-09-05T09:27:59.589Z,3.30
2018-09-05T09:29:51.756Z,2.90
2018-09-05T09:30:52.062Z,2.90
2018-09-05T09:32:44.021Z,2.90
2018-09-05T09:33:43.916Z,3.00
2018-09-05T09:35:36.537Z,3.00
2018-09-05T09:36:36.411Z,2.70
2018-09-05T09:38:29.119Z,2.90
2018-09-05T09:39:28.959Z,3.00
2018-09-05T09:41:21.644Z,3.00
2018-09-05T09:42:21.550Z,2.90
2018-09-05T09:44:14.232Z,2.90
2018-09-05T09:45:14.064Z,2.80
2018-09-05T09:47:06.742Z,2.70
2018-09-05T09:48:06.620Z,2.80
2018-09-05T09:49:59.320Z,2.80
2018-09-05T09:50:59.167Z,3.10
2018-09-05T09:52:52.212Z,2.90
2018-09-05T09:53:52.091Z,2.80
2018-09-05T09:55:44.952Z,2.90
2018-09-05T09:56:45.437Z,2.80
2018-09-05T09:58:39.010Z,2.70
2018-09-05T09:59:38.886Z,2.50
2018-09-05T10:01:31.599Z,2.50
2018-09-05T10:02:31.445Z,2.30
2018-09-05T10:04:24.126Z,2.60
2018-09-05T10:05:24.003Z,2.50
2018-09-05T10:07:16.789Z,2.70
2018-09-05T10:08:16.558Z,2.60
2018-09-05T10:10:09.502Z,2.40
2018-09-05T10:11:09.117Z,2.50
2018-09-05T10:13:01.831Z,2.60
2018-09-05T10:14:01.670Z,2.40
2018-09-05T10:15:54.355Z,2.50
2018-09-05T10:16:54.236Z,2.70
2018-09-05T10:18:46.932Z,2.30
2018-09-05T10:19:46.779Z,2.20
2018-09-05T10:21:40.303Z,2.30
2018-09-05T10:22:40.228Z,2.30
2018-09-05T10:24:32.896Z,2.40
2018-09-05T10:25:32.732Z,2.30
2018-09-05T10:27:25.444Z,2.50
2018-09-05T10:28:25.287Z,2.30
2018-09-05T10:30:17.968Z,2.40
2018-09-05T10:31:17.840Z,2.30
2018-09-05T10:33:10.597Z,2.20
2018-09-05T10:34:10.403Z,2.10
2018-09-05T10:36:03.084Z,2.30
2018-09-05T10:37:02.959Z,2.30
2018-09-05T10:38:55.673Z,2.20
2018-09-05T10:39:55.523Z,2.10
2018-09-05T10:41:48.192Z,2.30
2018-09-05T10:42:48.071Z,2.10
2018-09-05T10:44:40.780Z,2.00
2018-09-05T10:45:40.627Z,4.90
2018-09-05T10:46:40.513Z,3.70
2018-09-05T10:47:40.398Z,2.30
2018-09-05T10:48:40.281Z,2.40
2018-09-05T10:49:40.169Z,2.00
2018-09-05T10:50:40.051Z,2.30
2018-09-05T10:51:39.954Z,1.90
2018-09-05T10:52:39.823Z,2.00
2018-09-05T10:53:39.708Z,2.20
2018-09-05T10:54:39.594Z,2.10
2018-09-05T10:55:39.477Z,2.20
2018-09-05T10:56:39.362Z,2.50
2018-09-05T10:57:39.250Z,2.20
2018-09-05T10:58:39.134Z,2.30
2018-09-05T10:59:39.019Z,2.30
2018-09-05T11:00:38.906Z,2.50
2018-09-05T11:01:38.791Z,2.20
2018-09-05T11:02:38.677Z,2.30
2018-09-05T11:03:38.559Z,2.30
2018-09-05T11:04:38.446Z,2.20
2018-09-05T11:05:38.330Z,2.50
2018-09-05T11:06:38.252Z,2.40
2018-09-05T11:07:38.339Z,2.20
2018-09-05T11:08:37.990Z,2.40
2018-09-05T11:09:37.875Z,2.20
2018-09-05T11:10:37.767Z,2.60
2018-09-05T11:11:37.644Z,2.30
2018-09-05T11:12:37.529Z,2.40
2018-09-05T11:13:37.415Z,2.30
2018-09-05T11:14:37.314Z,2.50
2018-09-05T11:15:37.186Z,2.40
2018-09-05T11:16:37.071Z,2.30
2018-09-05T11:17:36.959Z,2.20
2018-09-05T11:18:37.114Z,2.40
2018-09-05T11:19:36.737Z,2.40
2018-09-05T11:20:36.617Z,2.50
2018-09-05T11:21:36.505Z,2.40
2018-09-05T11:22:36.386Z,2.40
2018-09-05T11:23:36.274Z,2.40
2018-09-05T11:24:36.158Z,2.20
2018-09-05T11:25:36.046Z,2.30
2018-09-05T11:26:35.929Z,2.20
2018-09-05T11:27:35.831Z,2.40
2018-09-05T11:28:35.784Z,2.40
2018-09-05T11:29:35.786Z,2.30
2018-09-05T11:30:35.478Z,2.20
2018-09-05T11:31:35.354Z,2.30
2018-09-05T11:32:35.240Z,2.50
2018-09-05T11:33:35.125Z,2.30
2018-09-05T11:34:35.015Z,2.40
2018-09-05T11:35:34.895Z,2.30
2018-09-05T11:36:34.783Z,2.10
2018-09-05T11:37:34.671Z,2.20
2018-09-05T11:38:34.554Z,2.30
2018-09-05T11:39:34.437Z,2.10
2018-09-05T11:40:34.324Z,2.10
2018-09-05T11:41:34.212Z,1.90
2018-09-05T11:42:34.096Z,2.30
2018-09-05T11:43:33.982Z,2.00
2018-09-05T11:44:33.871Z,2.20
2018-09-05T11:45:33.753Z,2.00
2018-09-05T11:46:33.639Z,2.50
2018-09-05T11:47:33.527Z,2.50
2018-09-05T11:48:33.414Z,2.30
2018-09-05T11:49:33.296Z,2.40
2018-09-05T11:50:33.187Z,2.50
2018-09-05T11:51:33.072Z,2.30
2018-09-05T11:52:32.955Z,2.10
2018-09-05T11:53:32.836Z,2.30
2018-09-05T11:54:32.726Z,2.20
2018-09-05T11:55:32.618Z,2.30
2018-09-05T11:56:32.495Z,2.40
2018-09-05T11:57:32.380Z,2.10
2018-09-05T11:58:32.263Z,2.20
2018-09-05T11:59:32.149Z,2.20
2018-09-05T12:00:32.033Z,2.10
2018-09-05T12:01:31.920Z,2.40
2018-09-05T12:02:31.805Z,2.30
2018-09-05T12:03:31.687Z,2.10
2018-09-05T12:04:31.572Z,2.20
2018-09-05T12:05:31.456Z,2.20
2018-09-05T12:06:31.342Z,2.10
2018-09-05T12:07:31.224Z,2.30
2018-09-05T12:08:31.115Z,2.20
2018-09-05T12:09:30.997Z,2.20
2018-09-05T12:10:30.883Z,2.20
2018-09-05T12:11:30.786Z,2.10
2018-09-05T12:12:30.653Z,2.30
2018-09-05T12:13:30.535Z,2.30
2018-09-05T12:14:30.418Z,2.40
2018-09-05T12:15:30.300Z,2.10
2018-09-05T12:16:30.189Z,2.10
2018-09-05T12:17:30.069Z,2.10
2018-09-05T12:18:29.955Z,2.20
2018-09-05T12:19:29.838Z,2.20
2018-09-05T12:20:29.721Z,2.40
2018-09-05T12:21:29.604Z,2.20
2018-09-05T12:22:29.489Z,2.10
2018-09-05T12:23:29.375Z,2.40
2018-09-05T12:24:29.256Z,2.30
2018-09-05T12:25:29.142Z,2.10
2018-09-05T12:26:29.025Z,2.30
2018-09-05T12:27:29.004Z,2.30
2018-09-05T12:28:28.799Z,2.10
2018-09-05T12:29:28.675Z,2.10
2018-09-05T12:30:28.835Z,2.20
2018-09-05T12:31:28.444Z,2.20
2018-09-05T12:32:28.331Z,2.10
2018-09-05T12:33:28.213Z,2.20
2018-09-05T12:34:28.103Z,1.90
2018-09-05T12:35:27.983Z,2.00
2018-09-05T12:36:27.867Z,2.30
2018-09-05T12:37:28.958Z,2.00
2018-09-05T12:38:27.636Z,2.00
2018-09-05T12:39:27.520Z,2.20
2018-09-05T12:40:27.410Z,2.00
2018-09-05T12:41:27.288Z,1.90
2018-09-05T12:42:27.175Z,2.00
2018-09-05T12:43:27.230Z,2.00
2018-09-05T12:44:26.941Z,1.90
2018-09-05T12:45:26.845Z,2.10
2018-09-05T12:46:27.225Z,2.00
2018-09-05T12:47:26.596Z,1.90
2018-09-05T12:48:26.483Z,1.90
2018-09-05T12:49:26.367Z,2.20
2018-09-05T12:50:26.255Z,1.60
2018-09-05T12:51:26.138Z,2.10
2018-09-05T12:52:26.023Z,2.00
2018-09-05T12:53:25.908Z,1.90
2018-09-05T12:54:25.880Z,1.80
2018-09-05T12:55:25.686Z,2.00
2018-09-05T12:56:25.563Z,1.90
2018-09-05T12:57:25.461Z,1.90
2018-09-05T12:58:25.334Z,1.90
2018-09-05T12:59:25.312Z,1.70
2018-09-05T13:00:25.105Z,1.80
2018-09-05T13:01:24.996Z,1.80
2018-09-05T13:02:25.049Z,1.90
2018-09-05T13:03:24.917Z,1.60
2018-09-05T13:04:24.651Z,1.70
2018-09-05T13:05:24.895Z,1.70
2018-09-05T13:06:24.427Z,1.60
2018-09-05T13:07:24.494Z,1.70
2018-09-05T13:08:24.194Z,1.60
2018-09-05T13:09:24.082Z,1.80
2018-09-05T13:10:23.977Z,1.50
2018-09-05T13:11:23.912Z,1.80
2018-09-05T13:12:23.760Z,1.80
2018-09-05T13:13:23.665Z,1.70
2018-09-05T13:14:23.516Z,1.60
2018-09-05T13:15:23.402Z,1.60
2018-09-05T13:16:23.286Z,1.60
2018-09-05T13:17:23.172Z,1.70
2018-09-05T13:18:23.189Z,1.60
2018-09-05T13:19:23.059Z,1.60
2018-09-05T13:20:22.835Z,1.80
2018-09-05T13:21:22.724Z,1.60
2018-09-05T13:22:22.611Z,1.70
2018-09-05T13:23:22.497Z,1.60
2018-09-05T13:24:22.443Z,1.50
2018-09-05T13:25:22.273Z,1.70
2018-09-05T13:26:22.161Z,1.50
2018-09-05T13:27:22.173Z,1.60
2018-09-05T13:28:21.938Z,1.70
2018-09-05T13:29:21.876Z,1.60
2018-09-05T13:30:22.167Z,1.70
2018-09-05T13:31:21.602Z,1.60
2018-09-05T13:32:21.742Z,1.70
2018-09-05T13:33:21.378Z,1.80
2018-09-05T13:34:21.268Z,1.90
2018-09-05T13:35:21.157Z,1.60
2018-09-05T13:36:21.044Z,1.70
2018-09-05T13:37:20.932Z,1.70
2018-09-05T13:38:20.829Z,1.80
2018-09-05T13:39:20.900Z,1.70
2018-09-05T13:40:20.600Z,1.70
2018-09-05T13:41:20.490Z,1.70
2018-09-05T13:42:20.378Z,1.70
2018-09-05T13:43:20.268Z,1.70
2018-09-05T13:44:20.156Z,1.60
2018-09-05T13:45:20.047Z,1.90
2018-09-05T13:46:19.935Z,1.90
2018-09-05T13:47:19.853Z,1.90
2018-09-05T13:48:19.713Z,1.70
2018-09-05T13:49:19.602Z,1.80
2018-09-05T13:50:19.500Z,1.90
2018-09-05T13:51:19.416Z,1.70
2018-09-05T13:52:19.273Z,1.80
2018-09-05T13:53:19.163Z,1.70
2018-09-05T13:54:19.053Z,1.70
2018-09-05T13:55:19.130Z,1.90
2018-09-05T13:56:18.891Z,1.80
2018-09-05T13:57:18.763Z,1.80
2018-09-05T13:58:18.619Z,1.70
2018-09-05T13:59:18.504Z,1.80
2018-09-05T14:00:18.396Z,1.60
2018-09-05T14:01:18.281Z,1.70
2018-09-05T14:02:18.171Z,2.00
2018-09-05T14:03:18.063Z,1.90
2018-09-05T14:04:17.954Z,1.80
2018-09-05T14:05:17.847Z,1.80
2018-09-05T14:06:17.736Z,1.80
2018-09-05T14:07:17.633Z,2.00
2018-09-05T14:08:17.512Z,2.00
2018-09-05T14:09:17.404Z,2.00
2018-09-05T14:10:17.293Z,2.00
2018-09-05T14:11:17.181Z,2.20
2018-09-05T14:12:17.072Z,2.00
2018-09-05T14:13:16.961Z,2.10
2018-09-05T14:14:16.851Z,1.80
2018-09-05T14:15:16.739Z,2.00
2018-09-05T14:16:16.624Z,2.10
2018-09-05T14:17:16.514Z,2.30
2018-09-05T14:18:16.403Z,2.00
2018-09-05T14:19:16.290Z,2.10
2018-09-05T14:20:16.182Z,2.00
2018-09-05T14:21:16.224Z,2.30
2018-09-05T14:22:23.099Z,1.90
2018-09-05T14:24:09.527Z,2.10
2018-09-05T14:25:09.375Z,2.20
2018-09-05T14:27:02.059Z,2.20
2018-09-05T14:28:01.942Z,2.10
2018-09-05T14:30:08.201Z,2.40
2018-09-05T14:31:08.046Z,2.40
2018-09-05T14:33:00.740Z,2.40